sensor_id;sensor_type;location;lat;lon;timestamp;pressure;altitude;pressure_sealevel;temperature;humidity
15529;BME280;7866;52.280;9.500;2023-09-19T00:02:55;99395.22;;;17.30;85.44
15529;BME280;7866;52.280;9.500;2023-09-19T00:08:01;99408.53;;;17.32;86.31
15529;BME280;7866;52.280;9.500;2023-09-19T00:13:05;99399.56;;;17.31;85.44
15529;BME280;7866;52.280;9.500;2023-09-19T00:18:08;99399.81;;;17.41;85.41
15529;BME280;7866;52.280;9.500;2023-09-19T00:23:10;99393.94;;;17.44;85.50
15529;BME280;7866;52.280;9.500;2023-09-19T00:28:13;99400.88;;;17.40;84.96
15529;BME280;7866;52.280;9.500;2023-09-19T00:33:16;99405.69;;;17.38;84.71
15529;BME280;7866;52.280;9.500;2023-09-19T00:38:20;99415.94;;;17.36;85.07
15529;BME280;7866;52.280;9.500;2023-09-19T00:43:24;99405.69;;;17.38;85.02
15529;BME280;7866;52.280;9.500;2023-09-19T00:48:27;99411.00;;;17.33;85.10
15529;BME280;7866;52.280;9.500;2023-09-19T00:53:30;99424.44;;;17.28;85.37
15529;BME280;7866;52.280;9.500;2023-09-19T00:58:33;99430.19;;;17.32;85.11
15529;BME280;7866;52.280;9.500;2023-09-19T01:03:36;99421.94;;;17.50;84.53
15529;BME280;7866;52.280;9.500;2023-09-19T01:08:38;99426.41;;;17.44;84.08
15529;BME280;7866;52.280;9.500;2023-09-19T01:13:48;99444.06;;;17.47;84.10
15529;BME280;7866;52.280;9.500;2023-09-19T01:18:57;99431.13;;;17.49;84.02
15529;BME280;7866;52.280;9.500;2023-09-19T01:24:22;99438.63;;;17.59;83.52
15529;BME280;7866;52.280;9.500;2023-09-19T01:29:38;99451.25;;;17.53;83.44
15529;BME280;7866;52.280;9.500;2023-09-19T01:34:45;99439.94;;;17.56;83.62
15529;BME280;7866;52.280;9.500;2023-09-19T01:39:50;99458.53;;;17.53;83.72
15529;BME280;7866;52.280;9.500;2023-09-19T01:44:59;99459.38;;;17.53;83.18
15529;BME280;7866;52.280;9.500;2023-09-19T01:50:13;99454.41;;;17.50;82.97
15529;BME280;7866;52.280;9.500;2023-09-19T01:55:20;99459.72;;;17.45;83.19
15529;BME280;7866;52.280;9.500;2023-09-19T02:00:23;99458.91;;;17.44;83.42
15529;BME280;7866;52.280;9.500;2023-09-19T02:05:27;99462.31;;;17.40;83.70
15529;BME280;7866;52.280;9.500;2023-09-19T02:10:29;99476.31;;;17.25;83.55
15529;BME280;7866;52.280;9.500;2023-09-19T02:15:31;99475.84;;;17.28;83.56
15529;BME280;7866;52.280;9.500;2023-09-19T02:20:36;99471.34;;;17.10;83.30
15529;BME280;7866;52.280;9.500;2023-09-19T02:25:37;99482.53;;;17.14;82.98
15529;BME280;7866;52.280;9.500;2023-09-19T02:30:39;99478.06;;;17.08;83.10
15529;BME280;7866;52.280;9.500;2023-09-19T02:35:42;99490.63;;;17.02;82.07
15529;BME280;7866;52.280;9.500;2023-09-19T02:40:44;99489.88;;;16.95;82.03
15529;BME280;7866;52.280;9.500;2023-09-19T02:45:46;99491.28;;;16.86;81.80
15529;BME280;7866;52.280;9.500;2023-09-19T02:50:51;99488.22;;;16.82;81.46
15529;BME280;7866;52.280;9.500;2023-09-19T02:55:53;99502.94;;;16.86;81.40
15529;BME280;7866;52.280;9.500;2023-09-19T03:00:55;99500.66;;;16.83;80.98
15529;BME280;7866;52.280;9.500;2023-09-19T03:05:59;99495.44;;;16.70;81.73
15529;BME280;7866;52.280;9.500;2023-09-19T03:11:04;99504.31;;;16.59;82.04
15529;BME280;7866;52.280;9.500;2023-09-19T03:16:08;99508.97;;;16.51;82.08
15529;BME280;7866;52.280;9.500;2023-09-19T03:21:11;99510.50;;;16.47;82.64
15529;BME280;7866;52.280;9.500;2023-09-19T03:26:13;99514.69;;;16.43;82.77
15529;BME280;7866;52.280;9.500;2023-09-19T03:31:16;99523.75;;;16.37;82.41
15529;BME280;7866;52.280;9.500;2023-09-19T03:36:19;99526.88;;;16.34;82.49
15529;BME280;7866;52.280;9.500;2023-09-19T03:41:20;99519.41;;;16.36;82.38
15529;BME280;7866;52.280;9.500;2023-09-19T03:46:22;99527.34;;;16.31;82.15
15529;BME280;7866;52.280;9.500;2023-09-19T03:51:26;99525.75;;;16.23;82.48
15529;BME280;7866;52.280;9.500;2023-09-19T03:56:28;99530.97;;;16.25;82.44
15529;BME280;7866;52.280;9.500;2023-09-19T04:01:30;99534.25;;;16.27;82.52
15529;BME280;7866;52.280;9.500;2023-09-19T04:06:34;99533.66;;;16.25;82.42
15529;BME280;7866;52.280;9.500;2023-09-19T04:11:36;99544.47;;;16.25;81.61
15529;BME280;7866;52.280;9.500;2023-09-19T04:16:37;99539.88;;;16.25;82.14
15529;BME280;7866;52.280;9.500;2023-09-19T04:21:40;99551.88;;;16.30;81.92
15529;BME280;7866;52.280;9.500;2023-09-19T04:26:43;99539.88;;;16.25;82.36
15529;BME280;7866;52.280;9.500;2023-09-19T04:31:45;99545.53;;;16.24;82.48
15529;BME280;7866;52.280;9.500;2023-09-19T04:36:48;99552.63;;;16.18;82.50
15529;BME280;7866;52.280;9.500;2023-09-19T04:41:50;99562.03;;;16.16;82.52
15529;BME280;7866;52.280;9.500;2023-09-19T04:46:51;99562.38;;;16.01;82.29
15529;BME280;7866;52.280;9.500;2023-09-19T04:51:54;99574.94;;;16.14;82.15
15529;BME280;7866;52.280;9.500;2023-09-19T04:56:56;99583.75;;;16.02;81.93
15529;BME280;7866;52.280;9.500;2023-09-19T05:01:58;99586.81;;;15.88;82.14
15529;BME280;7866;52.280;9.500;2023-09-19T05:07:01;99584.72;;;15.90;82.38
15529;BME280;7866;52.280;9.500;2023-09-19T05:12:04;99588.69;;;15.87;81.84
15529;BME280;7866;52.280;9.500;2023-09-19T05:17:05;99600.53;;;15.86;81.23
15529;BME280;7866;52.280;9.500;2023-09-19T05:22:09;99618.00;;;15.84;81.07
15529;BME280;7866;52.280;9.500;2023-09-19T05:27:11;99606.19;;;15.85;80.07
15529;BME280;7866;52.280;9.500;2023-09-19T05:32:13;99605.78;;;15.81;80.36
15529;BME280;7866;52.280;9.500;2023-09-19T05:37:17;99633.44;;;15.76;80.12
15529;BME280;7866;52.280;9.500;2023-09-19T05:42:18;99630.53;;;15.78;79.68
15529;BME280;7866;52.280;9.500;2023-09-19T05:47:20;99645.06;;;15.77;79.77
15529;BME280;7866;52.280;9.500;2023-09-19T05:52:24;99657.09;;;15.81;79.36
15529;BME280;7866;52.280;9.500;2023-09-19T05:57:26;99672.63;;;15.86;79.03
15529;BME280;7866;52.280;9.500;2023-09-19T06:02:30;99681.50;;;15.93;79.12
15529;BME280;7866;52.280;9.500;2023-09-19T06:07:34;99678.69;;;16.06;78.24
15529;BME280;7866;52.280;9.500;2023-09-19T06:12:38;99694.84;;;16.13;78.05
15529;BME280;7866;52.280;9.500;2023-09-19T06:17:39;99696.84;;;16.24;77.44
15529;BME280;7866;52.280;9.500;2023-09-19T06:22:44;99699.06;;;16.27;77.22
15529;BME280;7866;52.280;9.500;2023-09-19T06:27:46;99688.06;;;16.47;77.24
15529;BME280;7866;52.280;9.500;2023-09-19T06:32:47;99675.94;;;16.74;76.16
15529;BME280;7866;52.280;9.500;2023-09-19T06:37:51;99677.50;;;16.64;75.84
15529;BME280;7866;52.280;9.500;2023-09-19T06:42:53;99658.19;;;16.60;76.01
15529;BME280;7866;52.280;9.500;2023-09-19T06:47:56;99668.09;;;16.66;75.27
15529;BME280;7866;52.280;9.500;2023-09-19T06:53:01;99669.84;;;16.79;74.67
15529;BME280;7866;52.280;9.500;2023-09-19T06:58:03;99677.06;;;16.85;74.85
15529;BME280;7866;52.280;9.500;2023-09-19T07:03:07;99683.44;;;17.09;74.19
15529;BME280;7866;52.280;9.500;2023-09-19T07:08:13;99697.41;;;17.06;73.91
15529;BME280;7866;52.280;9.500;2023-09-19T07:13:15;99682.16;;;17.12;72.99
15529;BME280;7866;52.280;9.500;2023-09-19T07:18:18;99693.00;;;17.12;72.75
15529;BME280;7866;52.280;9.500;2023-09-19T07:23:21;99705.72;;;17.23;72.46
15529;BME280;7866;52.280;9.500;2023-09-19T07:28:24;99708.97;;;17.32;72.28
15529;BME280;7866;52.280;9.500;2023-09-19T07:33:26;99714.59;;;17.30;71.73
15529;BME280;7866;52.280;9.500;2023-09-19T07:38:30;99717.97;;;17.26;71.86
15529;BME280;7866;52.280;9.500;2023-09-19T07:43:32;99728.56;;;17.27;71.26
15529;BME280;7866;52.280;9.500;2023-09-19T07:48:34;99741.81;;;17.17;72.03
15529;BME280;7866;52.280;9.500;2023-09-19T07:53:37;99748.59;;;17.08;71.69
15529;BME280;7866;52.280;9.500;2023-09-19T07:58:39;99748.28;;;16.97;71.45
15529;BME280;7866;52.280;9.500;2023-09-19T08:03:44;99735.38;;;16.99;71.97
15529;BME280;7866;52.280;9.500;2023-09-19T08:08:47;99732.69;;;16.99;71.92
15529;BME280;7866;52.280;9.500;2023-09-19T08:13:54;99736.41;;;17.17;70.87
15529;BME280;7866;52.280;9.500;2023-09-19T08:18:55;99732.63;;;17.36;70.75
15529;BME280;7866;52.280;9.500;2023-09-19T08:23:58;99732.41;;;17.68;69.33
15529;BME280;7866;52.280;9.500;2023-09-19T08:29:01;99714.22;;;17.57;66.62
15529;BME280;7866;52.280;9.500;2023-09-19T08:34:07;99730.16;;;17.65;68.97
15529;BME280;7866;52.280;9.500;2023-09-19T08:39:10;99734.88;;;18.00;68.82
15529;BME280;7866;52.280;9.500;2023-09-19T08:44:12;99745.84;;;18.05;68.24
15529;BME280;7866;52.280;9.500;2023-09-19T08:49:21;99750.47;;;18.16;68.78
15529;BME280;7866;52.280;9.500;2023-09-19T08:54:35;99728.59;;;17.99;68.87
15529;BME280;7866;52.280;9.500;2023-09-19T08:59:41;99736.53;;;18.01;68.37
15529;BME280;7866;52.280;9.500;2023-09-19T09:04:45;99731.94;;;18.01;68.60
15529;BME280;7866;52.280;9.500;2023-09-19T09:09:48;99743.59;;;18.02;68.05
15529;BME280;7866;52.280;9.500;2023-09-19T09:14:49;99746.63;;;17.93;68.78
15529;BME280;7866;52.280;9.500;2023-09-19T09:19:53;99741.84;;;18.19;68.11
15529;BME280;7866;52.280;9.500;2023-09-19T09:24:57;99743.28;;;18.45;67.90
15529;BME280;7866;52.280;9.500;2023-09-19T09:29:58;99747.78;;;18.28;67.23
15529;BME280;7866;52.280;9.500;2023-09-19T09:35:01;99743.19;;;18.52;67.08
15529;BME280;7866;52.280;9.500;2023-09-19T09:40:07;99750.50;;;18.39;65.55
15529;BME280;7866;52.280;9.500;2023-09-19T09:45:24;99755.31;;;18.61;65.99
15529;BME280;7866;52.280;9.500;2023-09-19T09:50:37;99758.03;;;18.61;65.79
15529;BME280;7866;52.280;9.500;2023-09-19T09:55:59;99758.25;;;18.94;63.78
15529;BME280;7866;52.280;9.500;2023-09-19T10:01:01;99761.31;;;19.10;65.78
15529;BME280;7866;52.280;9.500;2023-09-19T10:06:10;99770.25;;;19.22;65.52
15529;BME280;7866;52.280;9.500;2023-09-19T10:11:28;99785.03;;;18.91;66.15
15529;BME280;7866;52.280;9.500;2023-09-19T10:16:32;99770.09;;;18.88;65.72
15529;BME280;7866;52.280;9.500;2023-09-19T10:21:36;99770.06;;;19.00;65.43
15529;BME280;7866;52.280;9.500;2023-09-19T10:26:41;99764.75;;;19.05;64.89
15529;BME280;7866;52.280;9.500;2023-09-19T10:31:44;99758.16;;;19.01;64.68
15529;BME280;7866;52.280;9.500;2023-09-19T10:36:48;99757.09;;;19.42;62.87
15529;BME280;7866;52.280;9.500;2023-09-19T10:41:55;99771.25;;;19.44;62.96
15529;BME280;7866;52.280;9.500;2023-09-19T10:47:03;99762.44;;;19.37;63.37
15529;BME280;7866;52.280;9.500;2023-09-19T10:52:07;99757.63;;;19.56;63.66
15529;BME280;7866;52.280;9.500;2023-09-19T10:57:20;99755.28;;;19.60;64.42
15529;BME280;7866;52.280;9.500;2023-09-19T11:02:24;99758.16;;;19.99;62.30
15529;BME280;7866;52.280;9.500;2023-09-19T11:07:26;99759.19;;;19.52;61.79
15529;BME280;7866;52.280;9.500;2023-09-19T11:12:50;99754.03;;;19.79;61.65
15529;BME280;7866;52.280;9.500;2023-09-19T11:17:52;99752.44;;;20.12;62.52
15529;BME280;7866;52.280;9.500;2023-09-19T11:23:18;99760.34;;;19.68;62.22
15529;BME280;7866;52.280;9.500;2023-09-19T11:28:36;99765.59;;;19.75;61.25
15529;BME280;7866;52.280;9.500;2023-09-19T11:33:39;99763.22;;;20.07;61.12
15529;BME280;7866;52.280;9.500;2023-09-19T11:38:57;99752.03;;;19.75;61.63
15529;BME280;7866;52.280;9.500;2023-09-19T11:44:33;99754.59;;;19.53;60.69
15529;BME280;7866;52.280;9.500;2023-09-19T11:49:40;99758.09;;;19.65;62.23
15529;BME280;7866;52.280;9.500;2023-09-19T11:54:43;99758.91;;;19.94;61.98
15529;BME280;7866;52.280;9.500;2023-09-19T11:59:49;99755.47;;;19.70;61.66
15529;BME280;7866;52.280;9.500;2023-09-19T12:04:53;99762.38;;;19.49;62.58
15529;BME280;7866;52.280;9.500;2023-09-19T12:10:03;99756.28;;;19.71;61.07
15529;BME280;7866;52.280;9.500;2023-09-19T12:15:08;99753.28;;;19.84;61.44
15529;BME280;7866;52.280;9.500;2023-09-19T12:20:11;99750.56;;;19.84;61.12
15529;BME280;7866;52.280;9.500;2023-09-19T12:25:14;99748.75;;;19.73;61.65
15529;BME280;7866;52.280;9.500;2023-09-19T12:30:19;99753.69;;;19.76;61.43
15529;BME280;7866;52.280;9.500;2023-09-19T12:35:27;99757.16;;;19.71;61.84
15529;BME280;7866;52.280;9.500;2023-09-19T12:40:29;99757.72;;;19.73;61.15
15529;BME280;7866;52.280;9.500;2023-09-19T12:45:35;99735.19;;;19.89;60.84
15529;BME280;7866;52.280;9.500;2023-09-19T12:50:59;99736.72;;;19.85;59.30
15529;BME280;7866;52.280;9.500;2023-09-19T12:56:02;99730.97;;;19.99;60.48
15529;BME280;7866;52.280;9.500;2023-09-19T13:01:15;99728.78;;;20.12;60.17
15529;BME280;7866;52.280;9.500;2023-09-19T13:06:17;99737.75;;;20.13;58.88
15529;BME280;7866;52.280;9.500;2023-09-19T13:11:37;99734.09;;;19.90;59.72
15529;BME280;7866;52.280;9.500;2023-09-19T13:16:54;99730.31;;;20.42;56.82
15529;BME280;7866;52.280;9.500;2023-09-19T13:21:56;99713.50;;;20.45;58.63
15529;BME280;7866;52.280;9.500;2023-09-19T13:26:58;99723.09;;;20.31;58.87
15529;BME280;7866;52.280;9.500;2023-09-19T13:32:02;99719.97;;;20.39;57.68
15529;BME280;7866;52.280;9.500;2023-09-19T13:37:04;99705.75;;;20.71;57.54
15529;BME280;7866;52.280;9.500;2023-09-19T13:42:06;99702.13;;;20.65;57.83
15529;BME280;7866;52.280;9.500;2023-09-19T13:47:11;99695.31;;;20.84;57.20
15529;BME280;7866;52.280;9.500;2023-09-19T13:52:14;99694.13;;;21.19;57.14
15529;BME280;7866;52.280;9.500;2023-09-19T13:57:16;99682.19;;;20.81;57.64
15529;BME280;7866;52.280;9.500;2023-09-19T14:02:19;99677.81;;;21.24;56.41
15529;BME280;7866;52.280;9.500;2023-09-19T14:07:23;99687.59;;;21.20;57.59
15529;BME280;7866;52.280;9.500;2023-09-19T14:12:24;99693.03;;;20.76;57.65
15529;BME280;7866;52.280;9.500;2023-09-19T14:17:27;99697.16;;;20.23;58.98
15529;BME280;7866;52.280;9.500;2023-09-19T14:22:31;99693.91;;;20.09;59.46
15529;BME280;7866;52.280;9.500;2023-09-19T14:27:32;99689.94;;;20.34;59.06
15529;BME280;7866;52.280;9.500;2023-09-19T14:32:35;99688.69;;;20.41;57.63
15529;BME280;7866;52.280;9.500;2023-09-19T14:37:37;99685.72;;;20.99;57.02
15529;BME280;7866;52.280;9.500;2023-09-19T14:42:40;99679.56;;;20.48;57.66
15529;BME280;7866;52.280;9.500;2023-09-19T14:47:43;99680.31;;;20.43;57.93
15529;BME280;7866;52.280;9.500;2023-09-19T14:52:44;99689.28;;;20.60;57.09
15529;BME280;7866;52.280;9.500;2023-09-19T14:57:49;99672.03;;;20.72;56.80
15529;BME280;7866;52.280;9.500;2023-09-19T15:02:53;99673.41;;;20.74;56.59
15529;BME280;7866;52.280;9.500;2023-09-19T15:07:56;99669.63;;;20.75;56.89
15529;BME280;7866;52.280;9.500;2023-09-19T15:12:58;99669.47;;;20.65;57.45
15529;BME280;7866;52.280;9.500;2023-09-19T15:18:01;99667.31;;;20.28;57.74
15529;BME280;7866;52.280;9.500;2023-09-19T15:23:03;99680.81;;;20.40;58.19
15529;BME280;7866;52.280;9.500;2023-09-19T15:28:05;99672.97;;;20.43;58.61
15529;BME280;7866;52.280;9.500;2023-09-19T15:33:09;99656.16;;;20.30;58.34
15529;BME280;7866;52.280;9.500;2023-09-19T15:38:11;99664.09;;;20.31;58.22
15529;BME280;7866;52.280;9.500;2023-09-19T15:43:13;99665.59;;;20.05;58.37
15529;BME280;7866;52.280;9.500;2023-09-19T15:48:18;99671.28;;;20.04;58.73
15529;BME280;7866;52.280;9.500;2023-09-19T15:53:21;99684.78;;;19.99;59.37
15529;BME280;7866;52.280;9.500;2023-09-19T15:58:23;99677.88;;;19.91;59.64
15529;BME280;7866;52.280;9.500;2023-09-19T16:03:26;99680.06;;;19.94;59.33
15529;BME280;7866;52.280;9.500;2023-09-19T16:08:28;99681.00;;;19.83;59.30
15529;BME280;7866;52.280;9.500;2023-09-19T16:13:31;99685.16;;;19.74;59.45
15529;BME280;7866;52.280;9.500;2023-09-19T16:18:34;99689.78;;;19.73;59.23
15529;BME280;7866;52.280;9.500;2023-09-19T16:23:36;99692.75;;;19.72;59.14
15529;BME280;7866;52.280;9.500;2023-09-19T16:28:39;99691.69;;;19.73;58.92
15529;BME280;7866;52.280;9.500;2023-09-19T16:33:42;99677.63;;;19.76;59.00
15529;BME280;7866;52.280;9.500;2023-09-19T16:38:46;99672.06;;;19.71;58.95
15529;BME280;7866;52.280;9.500;2023-09-19T16:43:48;99680.97;;;19.66;58.65
15529;BME280;7866;52.280;9.500;2023-09-19T16:48:51;99662.22;;;19.53;58.42
15529;BME280;7866;52.280;9.500;2023-09-19T16:53:52;99663.72;;;19.43;58.97
15529;BME280;7866;52.280;9.500;2023-09-19T16:58:54;99667.97;;;19.39;59.00
15529;BME280;7866;52.280;9.500;2023-09-19T17:03:57;99668.75;;;19.23;59.63
15529;BME280;7866;52.280;9.500;2023-09-19T17:09:00;99670.19;;;19.14;59.76
15529;BME280;7866;52.280;9.500;2023-09-19T17:14:02;99663.03;;;19.08;60.09
15529;BME280;7866;52.280;9.500;2023-09-19T17:19:05;99669.19;;;19.03;59.87
15529;BME280;7866;52.280;9.500;2023-09-19T17:24:09;99671.56;;;19.00;60.08
15529;BME280;7866;52.280;9.500;2023-09-19T17:29:13;99672.97;;;18.90;60.45
15529;BME280;7866;52.280;9.500;2023-09-19T17:34:16;99668.28;;;18.86;60.45
15529;BME280;7866;52.280;9.500;2023-09-19T17:39:18;99672.78;;;18.80;60.45
15529;BME280;7866;52.280;9.500;2023-09-19T17:44:19;99665.59;;;18.74;60.52
15529;BME280;7866;52.280;9.500;2023-09-19T17:49:22;99662.31;;;18.72;60.50
15529;BME280;7866;52.280;9.500;2023-09-19T17:54:24;99661.84;;;18.75;60.73
15529;BME280;7866;52.280;9.500;2023-09-19T17:59:25;99662.75;;;18.69;60.80
15529;BME280;7866;52.280;9.500;2023-09-19T18:04:29;99671.47;;;18.71;60.91
15529;BME280;7866;52.280;9.500;2023-09-19T18:09:31;99661.81;;;18.63;61.11
15529;BME280;7866;52.280;9.500;2023-09-19T18:14:32;99660.41;;;18.61;61.15
15529;BME280;7866;52.280;9.500;2023-09-19T18:19:35;99654.00;;;18.67;61.33
15529;BME280;7866;52.280;9.500;2023-09-19T18:24:37;99660.28;;;18.67;60.99
15529;BME280;7866;52.280;9.500;2023-09-19T18:29:39;99668.16;;;18.69;60.86
15529;BME280;7866;52.280;9.500;2023-09-19T18:34:45;99671.69;;;18.69;61.14
15529;BME280;7866;52.280;9.500;2023-09-19T18:39:47;99678.31;;;18.62;61.52
15529;BME280;7866;52.280;9.500;2023-09-19T18:44:48;99685.38;;;18.63;61.26
15529;BME280;7866;52.280;9.500;2023-09-19T18:49:51;99679.63;;;18.59;61.46
15529;BME280;7866;52.280;9.500;2023-09-19T18:54:53;99683.63;;;18.57;61.74
15529;BME280;7866;52.280;9.500;2023-09-19T18:59:55;99674.56;;;18.51;61.83
15529;BME280;7866;52.280;9.500;2023-09-19T19:04:58;99671.38;;;18.54;61.60
15529;BME280;7866;52.280;9.500;2023-09-19T19:10:00;99673.97;;;18.61;61.46
15529;BME280;7866;52.280;9.500;2023-09-19T19:15:04;99682.44;;;18.64;61.39
15529;BME280;7866;52.280;9.500;2023-09-19T19:20:08;99680.44;;;18.60;61.55
15529;BME280;7866;52.280;9.500;2023-09-19T19:25:10;99680.22;;;18.50;61.68
15529;BME280;7866;52.280;9.500;2023-09-19T19:30:12;99680.09;;;18.56;61.56
15529;BME280;7866;52.280;9.500;2023-09-19T19:35:18;99685.63;;;18.50;62.07
15529;BME280;7866;52.280;9.500;2023-09-19T19:40:20;99681.03;;;18.50;61.90
15529;BME280;7866;52.280;9.500;2023-09-19T19:45:22;99683.88;;;18.55;61.77
15529;BME280;7866;52.280;9.500;2023-09-19T19:50:25;99679.75;;;18.53;61.87
15529;BME280;7866;52.280;9.500;2023-09-19T19:55:26;99683.53;;;18.52;61.96
15529;BME280;7866;52.280;9.500;2023-09-19T20:00:28;99695.66;;;18.61;61.89
15529;BME280;7866;52.280;9.500;2023-09-19T20:05:36;99688.81;;;18.58;61.65
15529;BME280;7866;52.280;9.500;2023-09-19T20:10:40;99703.19;;;18.59;61.85
15529;BME280;7866;52.280;9.500;2023-09-19T20:15:42;99704.41;;;18.51;61.74
15529;BME280;7866;52.280;9.500;2023-09-19T20:20:45;99691.78;;;18.57;61.75
15529;BME280;7866;52.280;9.500;2023-09-19T20:25:47;99701.31;;;18.59;61.42
15529;BME280;7866;52.280;9.500;2023-09-19T20:30:49;99695.56;;;18.56;61.76
15529;BME280;7866;52.280;9.500;2023-09-19T20:35:57;99687.63;;;18.54;62.06
15529;BME280;7866;52.280;9.500;2023-09-19T20:40:59;99692.59;;;18.57;61.62
15529;BME280;7866;52.280;9.500;2023-09-19T20:46:02;99693.88;;;18.66;61.44
15529;BME280;7866;52.280;9.500;2023-09-19T20:51:07;99685.88;;;18.60;61.57
15529;BME280;7866;52.280;9.500;2023-09-19T20:56:09;99683.03;;;18.55;61.73
15529;BME280;7866;52.280;9.500;2023-09-19T21:01:12;99676.44;;;18.51;62.25
15529;BME280;7866;52.280;9.500;2023-09-19T21:06:15;99683.53;;;18.52;62.13
15529;BME280;7866;52.280;9.500;2023-09-19T21:11:18;99681.38;;;18.54;61.86
15529;BME280;7866;52.280;9.500;2023-09-19T21:16:20;99671.63;;;18.41;62.54
15529;BME280;7866;52.280;9.500;2023-09-19T21:21:23;99667.84;;;18.42;62.45
15529;BME280;7866;52.280;9.500;2023-09-19T21:26:25;99670.19;;;18.38;62.63
15529;BME280;7866;52.280;9.500;2023-09-19T21:31:26;99683.19;;;18.36;62.80
15529;BME280;7866;52.280;9.500;2023-09-19T21:36:29;99681.53;;;18.35;62.97
15529;BME280;7866;52.280;9.500;2023-09-19T21:41:33;99682.34;;;18.36;63.00
15529;BME280;7866;52.280;9.500;2023-09-19T21:46:35;99676.22;;;18.40;62.91
15529;BME280;7866;52.280;9.500;2023-09-19T21:51:38;99670.34;;;18.43;62.83
15529;BME280;7866;52.280;9.500;2023-09-19T21:56:40;99668.56;;;18.37;63.18
15529;BME280;7866;52.280;9.500;2023-09-19T22:01:42;99656.53;;;18.33;63.34
15529;BME280;7866;52.280;9.500;2023-09-19T22:06:45;99660.16;;;18.39;63.13
15529;BME280;7866;52.280;9.500;2023-09-19T22:11:47;99664.78;;;18.38;63.12
15529;BME280;7866;52.280;9.500;2023-09-19T22:16:49;99660.41;;;18.37;63.47
15529;BME280;7866;52.280;9.500;2023-09-19T22:21:52;99659.94;;;18.40;63.33
15529;BME280;7866;52.280;9.500;2023-09-19T22:26:53;99662.06;;;18.38;63.53
15529;BME280;7866;52.280;9.500;2023-09-19T22:31:55;99666.44;;;18.39;63.45
15529;BME280;7866;52.280;9.500;2023-09-19T22:36:58;99668.56;;;18.37;63.60
15529;BME280;7866;52.280;9.500;2023-09-19T22:42:01;99656.88;;;18.37;63.65
15529;BME280;7866;52.280;9.500;2023-09-19T22:47:11;99646.88;;;18.37;63.96
15529;BME280;7866;52.280;9.500;2023-09-19T22:52:14;99657.47;;;18.39;64.03
15529;BME280;7866;52.280;9.500;2023-09-19T22:57:18;99665.84;;;18.37;64.02
15529;BME280;7866;52.280;9.500;2023-09-19T23:02:20;99656.63;;;18.38;64.07
15529;BME280;7866;52.280;9.500;2023-09-19T23:07:26;99658.78;;;18.36;64.37
15529;BME280;7866;52.280;9.500;2023-09-19T23:12:27;99667.97;;;18.35;64.42
15529;BME280;7866;52.280;9.500;2023-09-19T23:17:31;99672.34;;;18.36;64.62
15529;BME280;7866;52.280;9.500;2023-09-19T23:22:37;99671.88;;;18.39;64.88
15529;BME280;7866;52.280;9.500;2023-09-19T23:27:41;99664.19;;;18.36;64.86
15529;BME280;7866;52.280;9.500;2023-09-19T23:32:48;99669.28;;;18.33;64.94
15529;BME280;7866;52.280;9.500;2023-09-19T23:37:52;99659.13;;;18.40;64.93
15529;BME280;7866;52.280;9.500;2023-09-19T23:42:55;99640.63;;;18.37;64.75
15529;BME280;7866;52.280;9.500;2023-09-19T23:47:57;99672.56;;;18.35;65.18
15529;BME280;7866;52.280;9.500;2023-09-19T23:53:01;99672.91;;;18.38;65.32
15529;BME280;7866;52.280;9.500;2023-09-19T23:58:06;99684.72;;;18.44;65.07
